Search for airport 
image banner adimage banner adimage banner ad
image banner ad

CTM8 - Temiscouata-Sur-Le-Lac

Located in , Canada

ICAO - , IATA -

Data provided by Airmate  

General information

Coordinates: N47°41'5" W68°52'31"
Elevation is 500 feet MSL.
Magnetic variation is -17.5333° East
View others Airports in New Brunswick

Operational data

Special qualification required
Current time UTC:
Current local time:
Weather at : KFVE - Northern Aroostook Rgnl ( 61 km )
METAR: KFVE 221550Z AUTO 16009KT 3/4SM BR VV002 12/11 A2967 RMK AO2 VIS 1/4V4 RAE23 P0000
TAF: KFVE 221353Z 2214/2312 15009KT 3SM -SHRA OVC004 TEMPO 2214/2216 1/2SM FG OVC002 FM221700 19010G18KT 5SM -SHRA OVC007 FM222100 22009KT P6SM VCSH OVC015 FM230500 29006KT P6SM SCT025 BKN040
View NOTAMs / SUP AIP / TFR affecting this airport [VIEW]
Communications frequencies: [VIEW]

Runways:

RWY identifierQFULength (ft)Width (ft)SurfaceLDA (ft)
W00WATER

Airport contact information

Address: Canada

Satellite view of CTM8